Terminal Aerodrome Forecast
Issued by NWS Memphis, TN

Home | Current Version | Previous Version | Text Only | Print | Product List | Glossary On
Versions: 1 2 3 4 5 6 7 8 9 10 11 12
000
FTUS44 KMEG 050520
TAFJBR
TAF
KJBR 050520Z 0506/0606 17004KT P6SM FEW200
     FM051500 19010G16KT P6SM VCSH SCT060 SCT200
     FM060100 17006KT P6SM FEW200=

USA.gov is the U.S. government's official web portal to all federal, state and local government web resources and services.